createdAt,value
2018-06-16T00:00:29.136Z,20.37
2018-06-16T00:02:57.553Z,22.57
2018-06-16T00:05:25.973Z,18.30
2018-06-16T00:07:54.400Z,21.57
2018-06-16T00:10:22.511Z,18.67
2018-06-16T00:12:50.913Z,18.23
2018-06-16T00:15:19.374Z,12.97
2018-06-16T00:17:47.796Z,23.97
2018-06-16T00:20:16.224Z,21.73
2018-06-16T00:22:44.640Z,22.43
2018-06-16T00:25:13.056Z,18.03
2018-06-16T00:27:41.485Z,15.80
2018-06-16T00:30:09.901Z,18.30
2018-06-16T00:32:38.009Z,12.47
2018-06-16T00:35:06.433Z,15.97
2018-06-16T00:37:34.875Z,23.80
2018-06-16T00:40:03.342Z,18.00
2018-06-16T00:42:31.770Z,17.60
2018-06-16T00:44:59.863Z,28.40
2018-06-16T00:47:28.336Z,29.30
2018-06-16T00:49:56.773Z,17.43
2018-06-16T00:52:25.177Z,25.30
2018-06-16T00:54:53.709Z,14.13
2018-06-16T00:57:33.391Z,22.23
2018-06-16T01:00:01.889Z,21.93
2018-06-16T01:02:29.979Z,17.33
2018-06-16T01:04:58.396Z,14.37
2018-06-16T01:07:26.817Z,15.90
2018-06-16T01:09:55.244Z,16.17
2018-06-16T01:12:23.696Z,20.60
2018-06-16T01:14:52.112Z,23.67
2018-06-16T01:17:20.521Z,28.83
2018-06-16T01:19:49.301Z,18.43
2018-06-16T01:22:17.779Z,16.50
2018-06-16T01:24:46.195Z,16.43
2018-06-16T01:27:20.988Z,23.70
2018-06-16T01:29:49.093Z,13.43
2018-06-16T01:32:17.484Z,27.40
2018-06-16T01:34:45.912Z,17.87
2018-06-16T01:37:14.030Z,21.90
2018-06-16T01:39:42.445Z,19.47
2018-06-16T01:42:11.238Z,17.47
2018-06-16T01:44:39.692Z,22.63
2018-06-16T01:47:08.505Z,14.37
2018-06-16T01:49:37.068Z,25.13
2018-06-16T01:52:05.721Z,15.50
2018-06-16T01:54:34.228Z,15.27
2018-06-16T01:57:02.925Z,29.40
2018-06-16T01:59:31.329Z,20.87
2018-06-16T02:01:59.431Z,15.20
2018-06-16T02:04:27.853Z,14.30
2018-06-16T02:06:56.305Z,11.63
2018-06-16T02:09:24.709Z,17.87
2018-06-16T02:11:53.141Z,12.03
2018-06-16T02:14:21.552Z,18.17
2018-06-16T02:16:49.981Z,13.90
2018-06-16T02:19:18.393Z,13.43
2018-06-16T02:21:46.840Z,18.33
2018-06-16T02:24:15.254Z,21.53
2018-06-16T02:26:43.669Z,22.67
2018-06-16T02:29:12.096Z,16.90
2018-06-16T02:31:40.556Z,17.10
2018-06-16T02:34:08.981Z,15.67
2018-06-16T02:36:37.390Z,25.70
2018-06-16T02:39:08.241Z,15.80
2018-06-16T02:41:36.656Z,28.13
2018-06-16T02:44:05.114Z,23.80
2018-06-16T02:46:33.512Z,11.60
2018-06-16T02:49:02.071Z,19.60
2018-06-16T02:51:30.521Z,23.17
2018-06-16T02:53:58.628Z,19.83
2018-06-16T02:56:27.112Z,25.43
2018-06-16T02:58:55.581Z,28.27
2018-06-16T03:01:24.058Z,29.87
2018-06-16T03:03:52.465Z,17.93
2018-06-16T03:06:20.894Z,30.17
2018-06-16T03:08:48.992Z,25.37
2018-06-16T03:11:17.400Z,19.03
2018-06-16T03:13:45.838Z,21.77
2018-06-16T03:16:14.265Z,20.60
2018-06-16T03:18:42.716Z,18.00
2018-06-16T03:21:11.141Z,33.53
2018-06-16T03:23:39.246Z,17.03
2018-06-16T03:26:07.734Z,26.10
2018-06-16T03:28:36.140Z,20.43
2018-06-16T03:31:04.577Z,17.03
2018-06-16T03:33:33.005Z,19.40
2018-06-16T03:36:01.423Z,21.20
2018-06-16T03:38:29.844Z,23.00
2018-06-16T03:40:58.272Z,16.80
2018-06-16T03:43:26.708Z,25.30
2018-06-16T03:45:55.121Z,15.10
2018-06-16T03:48:23.219Z,14.47
2018-06-16T03:50:51.632Z,16.00
2018-06-16T03:53:20.057Z,13.70
2018-06-16T03:55:48.472Z,19.03
2018-06-16T03:58:16.892Z,14.50
2018-06-16T04:00:45.387Z,16.60
2018-06-16T04:03:13.487Z,18.77
2018-06-16T04:05:41.912Z,19.63
2018-06-16T04:08:10.342Z,24.53
2018-06-16T04:10:38.765Z,17.07
2018-06-16T04:13:07.240Z,16.43
2018-06-16T04:15:35.649Z,25.53
2018-06-16T04:18:04.093Z,19.60
2018-06-16T04:20:32.505Z,17.87
2018-06-16T04:23:00.937Z,19.00
2018-06-16T04:25:29.360Z,16.10
2018-06-16T04:27:57.784Z,20.07
2018-06-16T04:30:26.205Z,21.37
2018-06-16T04:32:54.308Z,13.33
2018-06-16T04:35:22.735Z,17.03
2018-06-16T04:37:51.136Z,17.97
2018-06-16T04:40:19.245Z,12.97
2018-06-16T04:42:47.641Z,15.47
2018-06-16T04:45:16.060Z,26.07
2018-06-16T04:47:44.152Z,10.93
2018-06-16T04:50:12.686Z,18.73
2018-06-16T04:52:41.100Z,10.60
2018-06-16T04:55:09.542Z,13.30
2018-06-16T04:57:37.949Z,17.53
2018-06-16T05:00:06.436Z,15.30
2018-06-16T05:02:34.876Z,19.80
2018-06-16T05:05:03.302Z,20.63
2018-06-16T05:07:31.720Z,13.83
2018-06-16T05:10:00.142Z,17.70
2018-06-16T05:12:28.573Z,16.30
2018-06-16T05:14:56.988Z,24.47
2018-06-16T05:17:25.414Z,15.47
2018-06-16T05:19:53.817Z,10.70
2018-06-16T05:22:22.240Z,15.43
2018-06-16T05:24:50.651Z,12.10
2018-06-16T05:27:19.072Z,16.23
2018-06-16T05:29:47.472Z,12.97
2018-06-16T05:32:15.934Z,13.93
2018-06-16T05:34:44.346Z,11.77
2018-06-16T05:37:12.796Z,14.43
2018-06-16T05:39:40.895Z,10.70
2018-06-16T05:42:09.307Z,9.83
2018-06-16T05:44:37.742Z,12.77
2018-06-16T05:47:06.157Z,10.57
2018-06-16T05:49:34.583Z,15.90
2018-06-16T05:52:02.681Z,22.83
2018-06-16T05:54:31.104Z,14.60
2018-06-16T05:56:59.528Z,18.17
2018-06-16T05:59:27.956Z,14.67
2018-06-16T06:01:56.369Z,10.60
2018-06-16T06:04:24.505Z,12.13
2018-06-16T06:06:52.904Z,21.73
2018-06-16T06:09:21.332Z,14.80
2018-06-16T06:11:49.741Z,6.93
2018-06-16T06:14:18.160Z,18.60
2018-06-16T06:16:46.574Z,14.80
2018-06-16T06:19:14.993Z,14.43
2018-06-16T06:21:43.401Z,10.00
2018-06-16T06:24:11.837Z,12.83
2018-06-16T06:26:40.240Z,16.03
2018-06-16T06:29:08.644Z,10.70
2018-06-16T06:31:37.077Z,18.30
2018-06-16T06:34:05.500Z,15.67
2018-06-16T06:36:33.917Z,13.37
2018-06-16T06:39:02.346Z,18.43
2018-06-16T06:41:30.825Z,11.93
2018-06-16T06:43:59.317Z,17.70
2018-06-16T06:46:27.737Z,11.13
2018-06-16T06:48:56.444Z,10.93
2018-06-16T06:51:24.868Z,10.60
2018-06-16T06:53:53.281Z,10.87
2018-06-16T06:56:21.705Z,6.90
2018-06-16T06:58:50.124Z,7.73
2018-06-16T07:01:18.554Z,4.23
2018-06-16T07:03:47.004Z,7.97
2018-06-16T07:06:15.452Z,9.57
2018-06-16T07:08:43.871Z,12.57
2018-06-16T07:11:12.301Z,7.40
2018-06-16T07:13:40.732Z,8.27
2018-06-16T07:16:09.137Z,9.43
2018-06-16T07:18:37.571Z,13.63
2018-06-16T07:21:06.024Z,9.50
2018-06-16T07:23:34.507Z,10.37
2018-06-16T07:26:02.876Z,15.57
2018-06-16T07:28:31.306Z,5.37
2018-06-16T07:30:59.724Z,21.03
2018-06-16T07:33:28.160Z,15.20
2018-06-16T07:35:56.239Z,8.00
2018-06-16T07:38:24.676Z,24.50
2018-06-16T07:40:53.087Z,8.97
2018-06-16T07:43:21.532Z,13.60
2018-06-16T07:45:50.045Z,19.90
2018-06-16T07:48:18.131Z,8.70
2018-06-16T07:50:46.554Z,14.20
2018-06-16T07:53:14.957Z,10.47
2018-06-16T07:55:43.080Z,18.27
2018-06-16T07:58:11.489Z,11.57
2018-06-16T08:00:39.939Z,16.80
2018-06-16T08:03:08.345Z,9.93
2018-06-16T08:05:36.832Z,10.20
2018-06-16T08:08:05.265Z,8.13
2018-06-16T08:10:33.900Z,13.90
2018-06-16T08:13:02.325Z,18.93
2018-06-16T08:15:30.757Z,14.70
2018-06-16T08:17:59.198Z,18.50
2018-06-16T08:20:27.608Z,15.13
2018-06-16T08:22:56.041Z,20.90
2018-06-16T08:25:24.461Z,31.27
2018-06-16T08:27:52.952Z,20.97
2018-06-16T08:30:21.367Z,19.93
2018-06-16T08:32:49.797Z,16.73
2018-06-16T08:35:18.219Z,11.53
2018-06-16T08:37:46.641Z,30.43
2018-06-16T08:40:15.054Z,15.10
2018-06-16T08:42:43.473Z,11.80
2018-06-16T08:45:11.892Z,10.40
2018-06-16T08:47:40.309Z,19.10
2018-06-16T08:50:08.721Z,8.27
2018-06-16T08:52:37.148Z,13.67
2018-06-16T08:55:05.997Z,11.27
2018-06-16T08:57:34.418Z,13.53
2018-06-16T09:00:02.536Z,12.27
2018-06-16T09:02:30.941Z,10.40
2018-06-16T09:04:59.789Z,7.80
2018-06-16T09:07:28.212Z,15.30
2018-06-16T09:09:56.325Z,15.43
2018-06-16T09:12:24.716Z,18.97
2018-06-16T09:14:53.176Z,11.97
2018-06-16T09:17:21.634Z,9.20
2018-06-16T09:19:50.049Z,11.30
2018-06-16T09:22:18.473Z,14.83
2018-06-16T09:24:46.916Z,5.83
2018-06-16T09:27:15.344Z,10.83
2018-06-16T09:29:43.713Z,12.13
2018-06-16T09:32:12.157Z,6.73
2018-06-16T09:34:40.659Z,9.03
2018-06-16T09:37:09.264Z,6.67
2018-06-16T09:39:37.360Z,10.47
2018-06-16T09:42:05.832Z,7.93
2018-06-16T09:44:34.249Z,6.50
2018-06-16T09:47:03.480Z,5.63
2018-06-16T09:49:31.574Z,6.97
2018-06-16T09:52:00.001Z,9.03
2018-06-16T09:54:28.420Z,10.70
2018-06-16T09:56:56.841Z,7.10
2018-06-16T09:59:25.264Z,10.40
2018-06-16T10:01:53.376Z,3.97
2018-06-16T10:04:22.189Z,9.27
2018-06-16T10:06:50.603Z,9.37
2018-06-16T10:09:18.807Z,10.00
2018-06-16T10:11:47.290Z,5.47
2018-06-16T10:14:15.717Z,11.63
2018-06-16T10:16:44.125Z,6.07
2018-06-16T10:19:12.544Z,8.23
2018-06-16T10:21:40.965Z,9.17
2018-06-16T10:24:09.488Z,7.70
2018-06-16T10:26:37.905Z,11.50
2018-06-16T10:29:06.375Z,6.77
2018-06-16T10:31:34.845Z,7.13
2018-06-16T10:34:02.932Z,8.70
2018-06-16T10:36:31.362Z,4.73
2018-06-16T10:38:59.797Z,8.57
2018-06-16T10:41:28.228Z,8.90
2018-06-16T10:43:56.655Z,14.03
2018-06-16T10:46:24.813Z,10.00
2018-06-16T10:48:53.277Z,9.63
2018-06-16T10:51:21.716Z,6.90
2018-06-16T10:53:50.229Z,10.07
2018-06-16T10:56:18.807Z,10.23
2018-06-16T10:58:47.246Z,8.57
2018-06-16T11:01:15.669Z,3.50
2018-06-16T11:03:44.069Z,3.77
2018-06-16T11:06:12.556Z,4.07
2018-06-16T11:08:41.001Z,3.87
2018-06-16T11:11:09.952Z,8.13
2018-06-16T11:13:38.385Z,6.37
2018-06-16T11:16:06.972Z,7.40
2018-06-16T11:18:35.652Z,5.27
2018-06-16T11:21:04.500Z,9.00
2018-06-16T11:23:32.937Z,3.93
2018-06-16T11:26:01.139Z,10.83
2018-06-16T11:28:29.662Z,3.33
2018-06-16T11:30:59.893Z,8.00
2018-06-16T11:33:29.073Z,13.00
2018-06-16T11:35:58.287Z,4.37
2018-06-16T11:38:28.107Z,5.20
2018-06-16T11:40:57.133Z,5.17
2018-06-16T11:43:25.859Z,7.70
2018-06-16T11:45:54.459Z,9.53
2018-06-16T11:48:23.075Z,7.53
2018-06-16T11:50:51.974Z,5.80
2018-06-16T11:53:21.601Z,8.37
2018-06-16T11:55:50.046Z,4.67
2018-06-16T11:58:18.488Z,5.57
2018-06-16T12:00:47.024Z,8.63
2018-06-16T12:03:15.621Z,5.33
2018-06-16T12:05:44.042Z,4.37
2018-06-16T12:08:12.233Z,5.83
2018-06-16T12:10:40.677Z,5.90
2018-06-16T12:13:09.115Z,16.50
2018-06-16T12:15:37.530Z,6.53
2018-06-16T12:18:06.181Z,6.20
2018-06-16T12:20:34.765Z,4.23
2018-06-16T12:23:03.192Z,4.17
2018-06-16T12:25:31.607Z,4.67
2018-06-16T12:28:00.030Z,7.50
2018-06-16T12:30:28.459Z,9.27
2018-06-16T12:32:56.865Z,7.53
2018-06-16T12:35:25.621Z,8.13
2018-06-16T12:37:54.049Z,3.77
2018-06-16T12:40:22.864Z,12.23
2018-06-16T12:42:50.965Z,5.93
2018-06-16T12:45:19.469Z,8.40
2018-06-16T12:47:47.873Z,7.73
2018-06-16T12:50:16.312Z,5.80
2018-06-16T12:52:44.731Z,10.50
2018-06-16T12:55:13.169Z,12.87
2018-06-16T12:57:41.583Z,10.47
2018-06-16T13:00:10.006Z,6.97
2018-06-16T13:02:38.454Z,4.47
2018-06-16T13:05:06.888Z,7.67
2018-06-16T13:07:35.485Z,10.57
2018-06-16T13:10:03.980Z,11.00
2018-06-16T13:12:32.457Z,3.90
2018-06-16T13:15:00.868Z,5.13
2018-06-16T13:17:29.314Z,6.47
2018-06-16T13:19:57.764Z,14.70
2018-06-16T13:22:26.301Z,12.63
2018-06-16T13:24:54.511Z,7.33
2018-06-16T13:27:22.940Z,5.93
2018-06-16T13:29:51.381Z,4.83
2018-06-16T13:32:19.840Z,6.87
2018-06-16T13:34:48.249Z,5.27
2018-06-16T13:37:16.801Z,9.00
2018-06-16T13:39:45.352Z,5.97
2018-06-16T13:42:13.466Z,13.63
2018-06-16T13:44:41.953Z,10.53
2018-06-16T13:47:10.389Z,10.53
2018-06-16T13:49:39.116Z,21.70
2018-06-16T13:52:07.565Z,11.13
2018-06-16T13:54:36.137Z,12.30
2018-06-16T13:57:04.715Z,7.43
2018-06-16T13:59:33.168Z,32.57
2018-06-16T14:02:02.085Z,12.23
2018-06-16T14:04:30.500Z,22.00
2018-06-16T14:06:58.977Z,15.83
2018-06-16T14:09:27.465Z,12.63
2018-06-16T14:11:55.949Z,10.03
2018-06-16T14:14:24.525Z,12.63
2018-06-16T14:16:52.933Z,21.17
2018-06-16T14:19:21.400Z,4.43
2018-06-16T14:21:49.817Z,12.23
2018-06-16T14:24:18.276Z,7.47
2018-06-16T14:26:46.420Z,13.57
2018-06-16T14:29:14.968Z,14.93
2018-06-16T14:31:43.413Z,5.90
2018-06-16T14:34:11.517Z,6.30
2018-06-16T14:36:39.957Z,7.10
2018-06-16T14:39:08.939Z,7.40
2018-06-16T14:41:37.374Z,5.90
2018-06-16T14:44:05.909Z,9.60
2018-06-16T14:46:34.072Z,5.43
2018-06-16T14:49:02.501Z,13.30
2018-06-16T14:51:30.920Z,8.90
2018-06-16T14:53:59.372Z,8.30
2018-06-16T14:56:27.849Z,6.10
2018-06-16T14:58:55.955Z,8.40
2018-06-16T15:01:24.427Z,9.47
2018-06-16T15:03:52.932Z,5.20
2018-06-16T15:06:21.356Z,5.50
2018-06-16T15:08:49.761Z,7.13
2018-06-16T15:11:18.197Z,8.63
2018-06-16T15:13:46.618Z,7.87
2018-06-16T15:16:15.116Z,7.27
2018-06-16T15:18:43.470Z,6.00
2018-06-16T15:21:11.877Z,9.17
2018-06-16T15:23:39.980Z,5.43
2018-06-16T15:26:08.385Z,8.67
2018-06-16T15:28:36.816Z,5.37
2018-06-16T15:31:05.260Z,4.53
2018-06-16T15:33:33.717Z,4.80
2018-06-16T15:36:02.169Z,11.00
2018-06-16T15:38:30.560Z,14.90
2018-06-16T15:40:58.997Z,5.13
2018-06-16T15:43:27.089Z,7.40
2018-06-16T15:45:55.540Z,4.53
2018-06-16T15:48:23.950Z,16.27
2018-06-16T15:50:52.362Z,5.93
2018-06-16T15:53:20.802Z,5.70
2018-06-16T15:55:49.205Z,5.13
2018-06-16T15:58:17.632Z,12.83
2018-06-16T16:00:46.049Z,5.63
2018-06-16T16:03:14.493Z,20.87
2018-06-16T16:05:42.897Z,11.60
2018-06-16T16:08:11.313Z,8.13
2018-06-16T16:10:39.781Z,20.03
2018-06-16T16:13:08.208Z,14.87
2018-06-16T16:15:36.320Z,15.00
2018-06-16T16:18:04.777Z,19.73
2018-06-16T16:20:33.206Z,17.47
2018-06-16T16:23:01.613Z,16.20
2018-06-16T16:25:29.715Z,13.57
2018-06-16T16:27:58.123Z,11.13
2018-06-16T16:30:26.545Z,12.83
2018-06-16T16:32:54.969Z,20.07
2018-06-16T16:35:23.415Z,20.03
2018-06-16T16:37:51.840Z,15.17
2018-06-16T16:40:20.321Z,19.13
2018-06-16T16:42:48.696Z,28.33
2018-06-16T16:45:17.121Z,15.40
2018-06-16T16:47:45.557Z,20.43
2018-06-16T16:50:13.989Z,11.07
2018-06-16T16:52:42.416Z,16.70
2018-06-16T16:55:10.853Z,15.60
2018-06-16T16:57:39.294Z,12.80
2018-06-16T17:00:07.392Z,20.17
2018-06-16T17:02:35.836Z,16.70
2018-06-16T17:05:03.965Z,8.60
2018-06-16T17:07:32.366Z,13.67
2018-06-16T17:10:00.810Z,20.10
2018-06-16T17:12:29.221Z,19.33
2018-06-16T17:14:57.645Z,10.00
2018-06-16T17:17:26.083Z,15.60
2018-06-16T17:19:54.492Z,22.30
2018-06-16T17:22:22.929Z,11.97
2018-06-16T17:24:51.337Z,15.10
2018-06-16T17:27:19.496Z,28.70
2018-06-16T17:29:47.905Z,18.70
2018-06-16T17:32:16.321Z,22.27
2018-06-16T17:34:44.747Z,21.83
2018-06-16T17:37:12.951Z,14.53
2018-06-16T17:39:41.395Z,16.30
2018-06-16T17:42:09.496Z,17.60
2018-06-16T17:44:37.928Z,17.20
2018-06-16T17:47:06.384Z,17.33
2018-06-16T17:49:35.170Z,21.90
2018-06-16T17:52:03.780Z,12.73
2018-06-16T17:54:32.181Z,17.87
2018-06-16T17:57:00.596Z,22.40
2018-06-16T17:59:29.351Z,20.73
2018-06-16T18:01:57.772Z,27.63
2018-06-16T18:04:26.201Z,23.80
2018-06-16T18:06:54.620Z,28.23
2018-06-16T18:09:23.028Z,23.30
2018-06-16T18:11:51.679Z,29.50
2018-06-16T18:14:20.096Z,33.10
2018-06-16T18:16:48.568Z,32.43
2018-06-16T18:19:16.986Z,41.20
2018-06-16T18:21:45.521Z,34.07
2018-06-16T18:24:13.952Z,37.13
2018-06-16T18:26:42.401Z,27.13
2018-06-16T18:29:10.668Z,15.73
2018-06-16T18:31:38.836Z,23.23
2018-06-16T18:34:07.273Z,23.20
2018-06-16T18:36:35.700Z,30.83
2018-06-16T18:39:05.869Z,29.27
2018-06-16T18:41:34.284Z,27.50
2018-06-16T18:44:02.942Z,37.27
2018-06-16T18:46:31.441Z,24.37
2018-06-16T18:49:00.038Z,31.80
2018-06-16T18:51:28.487Z,35.67
2018-06-16T18:53:56.944Z,31.17
2018-06-16T18:56:25.411Z,35.80
2018-06-16T18:58:53.854Z,21.90
2018-06-16T19:01:22.358Z,23.93
2018-06-16T19:03:50.870Z,25.37
2018-06-16T19:06:19.336Z,25.90
2018-06-16T19:08:47.772Z,28.57
2018-06-16T19:11:15.900Z,22.73
2018-06-16T19:13:44.340Z,28.30
2018-06-16T19:16:12.506Z,43.47
2018-06-16T19:18:41.004Z,38.07
2018-06-16T19:21:09.496Z,28.87
2018-06-16T19:23:37.900Z,30.13
2018-06-16T19:26:06.714Z,24.87
2018-06-16T19:28:35.192Z,27.73
2018-06-16T19:31:03.626Z,25.00
2018-06-16T19:33:32.137Z,29.00
2018-06-16T19:36:00.852Z,42.57
2018-06-16T19:38:29.325Z,30.37
2018-06-16T19:40:57.770Z,24.20
2018-06-16T19:43:26.186Z,35.30
2018-06-16T19:45:54.319Z,35.27
2018-06-16T19:48:22.793Z,36.37
2018-06-16T19:50:51.472Z,28.17
2018-06-16T19:53:20.028Z,45.27
2018-06-16T19:55:48.665Z,32.73
2018-06-16T19:58:17.097Z,23.37
2018-06-16T20:00:45.581Z,27.10
2018-06-16T20:03:14.073Z,23.20
2018-06-16T20:05:42.607Z,19.23
2018-06-16T20:08:11.242Z,19.73
2018-06-16T20:10:39.783Z,19.97
2018-06-16T20:13:08.217Z,21.40
2018-06-16T20:15:36.657Z,14.20
2018-06-16T20:18:05.089Z,15.30
2018-06-16T20:20:33.543Z,14.30
2018-06-16T20:23:02.041Z,23.27
2018-06-16T20:25:30.705Z,20.07
2018-06-16T20:27:59.137Z,14.80
2018-06-16T20:30:27.589Z,15.23
2018-06-16T20:32:55.701Z,20.83
2018-06-16T20:35:24.161Z,12.60
2018-06-16T20:37:52.645Z,21.40
2018-06-16T20:40:21.176Z,20.83
2018-06-16T20:42:49.613Z,23.40
2018-06-16T20:45:18.069Z,16.50
2018-06-16T20:47:46.165Z,18.70
2018-06-16T20:50:14.585Z,21.00
2018-06-16T20:52:43.489Z,19.63
2018-06-16T20:55:12.000Z,18.57
2018-06-16T20:57:40.624Z,15.90
2018-06-16T21:00:09.401Z,20.87
2018-06-16T21:02:37.937Z,20.63
2018-06-16T21:05:06.668Z,18.27
2018-06-16T21:07:35.322Z,23.87
2018-06-16T21:10:04.041Z,16.23
2018-06-16T21:12:32.481Z,19.07
2018-06-16T21:15:00.940Z,25.57
2018-06-16T21:17:29.084Z,20.70
2018-06-16T21:19:57.749Z,22.17
2018-06-16T21:22:26.385Z,19.07
2018-06-16T21:24:54.889Z,17.93
2018-06-16T21:27:23.321Z,28.03
2018-06-16T21:29:51.777Z,31.50
2018-06-16T21:32:20.193Z,22.30
2018-06-16T21:34:48.304Z,16.60
2018-06-16T21:37:17.662Z,24.83
2018-06-16T21:39:46.280Z,20.10
2018-06-16T21:42:14.723Z,14.00
2018-06-16T21:44:43.164Z,24.77
2018-06-16T21:47:11.252Z,19.93
2018-06-16T21:49:39.673Z,21.63
2018-06-16T21:52:08.514Z,13.87
2018-06-16T21:54:37.100Z,28.27
2018-06-16T21:57:05.856Z,17.67
2018-06-16T21:59:34.306Z,27.67
2018-06-16T22:02:02.739Z,23.40
2018-06-16T22:04:31.212Z,21.60
2018-06-16T22:06:59.617Z,29.80
2018-06-16T22:09:27.896Z,21.53
2018-06-16T22:11:56.203Z,21.37
2018-06-16T22:14:24.619Z,28.70
2018-06-16T22:16:53.049Z,20.30
2018-06-16T22:19:21.456Z,21.13
2018-06-16T22:21:49.890Z,25.07
2018-06-16T22:24:18.062Z,17.37
2018-06-16T22:26:46.629Z,15.97
2018-06-16T22:29:15.066Z,24.70
2018-06-16T22:31:43.549Z,27.43
2018-06-16T22:34:11.993Z,15.07
2018-06-16T22:36:40.409Z,11.67
2018-06-16T22:39:11.073Z,19.50
2018-06-16T22:41:39.548Z,23.10
2018-06-16T22:44:08.995Z,22.20
2018-06-16T22:46:37.773Z,23.00
2018-06-16T22:49:06.629Z,16.60
2018-06-16T22:51:35.090Z,20.20
2018-06-16T22:54:04.116Z,25.90
2018-06-16T22:56:32.553Z,17.80
2018-06-16T22:59:00.984Z,22.60
2018-06-16T23:01:29.436Z,22.23
2018-06-16T23:03:57.958Z,25.43
2018-06-16T23:06:26.381Z,35.33
2018-06-16T23:08:54.814Z,40.80
2018-06-16T23:11:23.240Z,26.37
2018-06-16T23:13:51.671Z,29.50
2018-06-16T23:16:20.076Z,23.20
2018-06-16T23:18:48.564Z,24.50
2018-06-16T23:21:17.000Z,21.10
2018-06-16T23:23:45.440Z,29.63
2018-06-16T23:26:13.836Z,31.03
2018-06-16T23:28:41.948Z,23.80
2018-06-16T23:31:10.386Z,24.93
2018-06-16T23:33:38.490Z,16.90
2018-06-16T23:36:06.921Z,13.70
2018-06-16T23:38:35.405Z,20.80
2018-06-16T23:41:03.528Z,19.33
2018-06-16T23:43:31.950Z,31.40
2018-06-16T23:46:00.393Z,29.43
2018-06-16T23:48:28.864Z,25.27
2018-06-16T23:50:57.336Z,32.67
2018-06-16T23:53:25.753Z,15.17
2018-06-16T23:55:54.172Z,16.43
2018-06-16T23:58:22.591Z,17.60
